Time;durP1;ratioP1;P1;durP2;ratioP2;P2;SDS_P1;SDS_P2;PMS_P1;PMS_P2;Temp;Humidity;BMP_temperature;BMP_pressure;BME280_temperature;BME280_humidity;BME280_pressure;Samples;Min_cycle;Max_cycle;Signal;HPM_P1;HPM_P2
2023/03/08 00:02:25;;;;;;;21.10;16.50;;;9.40;99.90;;;;;;5105833;28;20243;-70
2023/03/08 00:04:55;;;;;;;17.30;13.38;;;9.30;99.90;;;;;;5106307;28;20193;-70
2023/03/08 00:07:23;;;;;;;15.68;12.77;;;9.20;99.90;;;;;;5101970;28;20215;-72
2023/03/08 00:09:50;;;;;;;16.20;13.20;;;9.10;99.90;;;;;;5098299;28;20288;-70
2023/03/08 00:12:18;;;;;;;13.55;11.45;;;9.00;99.90;;;;;;5101051;28;20308;-72
2023/03/08 00:14:46;;;;;;;19.40;14.88;;;8.90;99.90;;;;;;5095004;28;20221;-71
2023/03/08 00:17:13;;;;;;;27.40;14.82;;;8.80;99.90;;;;;;5103481;28;20292;-71
2023/03/08 00:19:40;;;;;;;16.58;13.90;;;8.90;99.90;;;;;;5100376;28;20291;-72
2023/03/08 00:22:07;;;;;;;16.95;13.68;;;8.90;99.90;;;;;;5100166;28;20336;-71
2023/03/08 00:24:36;;;;;;;20.70;14.95;;;8.80;99.90;;;;;;5100603;28;20231;-72
2023/03/08 00:27:03;;;;;;;15.40;13.25;;;8.80;99.90;;;;;;5099572;28;20500;-71
2023/03/08 00:29:31;;;;;;;14.43;12.68;;;8.80;99.90;;;;;;5099111;28;20364;-71
2023/03/08 00:31:58;;;;;;;15.45;12.20;;;8.70;99.90;;;;;;5100495;28;20740;-71
2023/03/08 00:34:25;;;;;;;14.23;12.68;;;8.70;99.90;;;;;;5098412;28;20237;-71
2023/03/08 00:36:52;;;;;;;17.17;13.50;;;8.60;99.90;;;;;;5100153;28;20205;-71
2023/03/08 00:39:20;;;;;;;16.42;12.27;;;8.60;99.90;;;;;;5099859;28;20283;-71
2023/03/08 00:41:48;;;;;;;12.30;10.75;;;8.60;99.90;;;;;;5094857;28;20296;-71
2023/03/08 00:44:15;;;;;;;12.95;10.65;;;8.50;99.90;;;;;;5099646;27;20760;-71
2023/03/08 00:46:42;;;;;;;11.88;10.02;;;8.50;99.90;;;;;;5098092;28;20315;-70
2023/03/08 00:49:10;;;;;;;11.18;9.52;;;8.40;99.90;;;;;;5106880;27;20297;-71
2023/03/08 00:51:37;;;;;;;10.98;9.50;;;8.30;99.90;;;;;;5100464;27;20678;-72
2023/03/08 00:54:04;;;;;;;10.65;9.52;;;8.30;99.90;;;;;;5105749;27;20674;-71
2023/03/08 00:56:31;;;;;;;10.10;9.10;;;8.20;99.90;;;;;;5101705;27;20225;-70
2023/03/08 00:59:00;;;;;;;9.50;8.50;;;8.20;99.90;;;;;;5100061;28;20232;-71
2023/03/08 01:01:27;;;;;;;11.20;9.40;;;8.20;99.90;;;;;;5102798;27;20252;-71
2023/03/08 01:03:53;;;;;;;15.00;11.02;;;8.10;99.90;;;;;;5100507;28;20233;-71
2023/03/08 01:06:21;;;;;;;12.10;10.40;;;8.20;99.90;;;;;;5103333;27;20674;-71
2023/03/08 01:08:48;;;;;;;11.93;9.25;;;8.20;99.90;;;;;;5105966;27;20211;-71
2023/03/08 01:11:17;;;;;;;14.32;10.15;;;8.20;99.90;;;;;;5101297;27;20324;-71
2023/03/08 01:13:44;;;;;;;11.20;10.00;;;8.10;99.90;;;;;;5102118;27;20214;-71
2023/03/08 01:16:29;;;;;;;11.02;9.82;;;8.10;99.90;;;;;;5105009;27;20326;-70
2023/03/08 01:18:56;;;;;;;13.15;10.70;;;8.10;99.90;;;;;;5101984;27;20258;-71
2023/03/08 01:21:24;;;;;;;11.70;10.05;;;8.10;99.90;;;;;;5103200;27;20209;-71
2023/03/08 01:23:52;;;;;;;12.43;10.48;;;8.00;99.90;;;;;;5102910;27;20201;-71
2023/03/08 01:26:21;;;;;;;12.93;9.10;;;8.00;99.90;;;;;;5103111;27;20219;-71
2023/03/08 01:28:49;;;;;;;11.73;10.43;;;8.00;99.90;;;;;;5101937;27;20209;-71
2023/03/08 01:31:18;;;;;;;10.98;9.25;;;7.90;99.90;;;;;;5101796;27;20324;-71
2023/03/08 01:33:47;;;;;;;11.30;9.23;;;7.90;99.90;;;;;;5103433;27;20299;-72
2023/03/08 01:36:15;;;;;;;10.35;9.35;;;7.90;99.90;;;;;;5098205;27;20221;-72
2023/03/08 01:38:43;;;;;;;10.30;8.70;;;7.90;99.90;;;;;;5101119;27;20243;-72
2023/03/08 01:41:15;;;;;;;10.43;9.32;;;7.80;99.90;;;;;;5103540;27;20232;-71
2023/03/08 01:43:43;;;;;;;10.77;9.20;;;7.80;99.90;;;;;;5102186;27;20209;-71
2023/03/08 01:46:31;;;;;;;11.43;9.23;;;7.80;99.90;;;;;;5103489;28;20617;-70
2023/03/08 01:49:05;;;;;;;9.85;8.80;;;7.70;99.90;;;;;;5099097;27;20239;-70
2023/03/08 01:51:37;;;;;;;11.30;9.25;;;7.70;99.90;;;;;;5103131;27;20406;-71
2023/03/08 01:54:08;;;;;;;11.02;9.80;;;7.70;99.90;;;;;;5104156;27;20301;-72
2023/03/08 01:56:37;;;;;;;10.13;9.13;;;7.60;99.90;;;;;;5099323;27;20582;-72
2023/03/08 01:59:04;;;;;;;10.32;8.55;;;7.60;99.90;;;;;;5100404;27;20665;-72
2023/03/08 02:01:33;;;;;;;9.77;8.77;;;7.50;99.90;;;;;;5102674;27;20256;-72
2023/03/08 02:04:00;;;;;;;12.90;10.00;;;7.60;99.90;;;;;;5100197;27;20283;-72
2023/03/08 02:06:29;;;;;;;10.52;9.13;;;7.50;99.90;;;;;;5100955;27;20719;-70
2023/03/08 02:08:56;;;;;;;10.00;9.00;;;7.50;99.90;;;;;;5100110;27;20280;-70
2023/03/08 02:11:25;;;;;;;10.85;9.68;;;7.50;99.90;;;;;;5101453;27;20361;-70
2023/03/08 02:13:54;;;;;;;10.85;9.25;;;7.50;99.90;;;;;;5103308;27;20200;-70
2023/03/08 02:16:22;;;;;;;11.55;9.95;;;7.50;99.90;;;;;;5096533;27;20294;-70
2023/03/08 02:18:54;;;;;;;10.40;9.35;;;7.50;99.90;;;;;;5105172;28;20205;-71
2023/03/08 02:21:22;;;;;;;10.90;9.80;;;7.50;99.90;;;;;;5103720;27;20240;-71
2023/03/08 02:23:50;;;;;;;12.35;9.90;;;7.50;99.90;;;;;;5099428;27;20289;-71
2023/03/08 02:26:18;;;;;;;10.32;9.30;;;7.40;99.90;;;;;;5098028;28;20787;-70
2023/03/08 02:28:46;;;;;;;10.50;9.40;;;7.40;99.90;;;;;;5105213;27;20792;-70
2023/03/08 02:31:14;;;;;;;9.65;8.75;;;7.30;99.90;;;;;;5106594;27;20353;-69
2023/03/08 02:33:41;;;;;;;10.52;9.45;;;7.30;99.90;;;;;;5100089;27;20289;-69
2023/03/08 02:36:09;;;;;;;12.63;10.18;;;7.30;99.90;;;;;;5104105;27;20594;-71
2023/03/08 02:38:37;;;;;;;10.82;9.50;;;7.20;99.90;;;;;;5097087;27;20204;-71
2023/03/08 02:41:06;;;;;;;10.30;9.20;;;7.30;99.90;;;;;;5099123;27;20288;-71
2023/03/08 02:43:33;;;;;;;11.50;9.57;;;7.30;99.90;;;;;;5099657;27;20348;-71
2023/03/08 02:46:00;;;;;;;10.38;9.27;;;7.20;99.90;;;;;;5101820;27;20714;-70
2023/03/08 02:48:28;;;;;;;10.35;9.25;;;7.20;99.90;;;;;;5099924;27;20284;-71
2023/03/08 02:50:55;;;;;;;12.25;11.00;;;7.30;99.90;;;;;;5100278;27;20197;-71
2023/03/08 02:53:22;;;;;;;11.02;9.43;;;7.30;99.90;;;;;;5101433;27;20287;-71
2023/03/08 02:55:49;;;;;;;11.25;9.10;;;7.30;99.90;;;;;;5103757;27;20293;-71
2023/03/08 02:58:17;;;;;;;11.05;9.88;;;7.30;99.90;;;;;;5099786;27;20621;-71
2023/03/08 03:00:44;;;;;;;14.00;9.98;;;7.30;99.90;;;;;;5102797;27;20905;-71
2023/03/08 03:03:11;;;;;;;10.88;9.27;;;7.30;99.90;;;;;;5098014;27;20257;-71
2023/03/08 03:05:42;;;;;;;10.30;9.20;;;7.30;99.90;;;;;;5096920;27;20290;-71
2023/03/08 03:08:10;;;;;;;11.75;9.18;;;7.30;99.90;;;;;;5096653;28;20204;-71
2023/03/08 03:10:37;;;;;;;11.35;10.15;;;7.30;99.90;;;;;;5102980;27;20228;-71
2023/03/08 03:13:04;;;;;;;12.20;9.48;;;7.30;99.90;;;;;;5127165;27;20789;-71
2023/03/08 03:15:33;;;;;;;9.50;8.60;;;7.30;99.90;;;;;;5103827;27;20304;-72
2023/03/08 03:18:00;;;;;;;13.23;9.82;;;7.30;99.90;;;;;;5099196;27;20193;-71
2023/03/08 03:20:27;;;;;;;11.48;9.40;;;7.20;99.90;;;;;;5100365;27;20295;-72
2023/03/08 03:22:54;;;;;;;9.40;8.48;;;7.20;99.90;;;;;;5097929;27;20224;-71
2023/03/08 03:25:21;;;;;;;9.55;8.30;;;7.20;99.90;;;;;;5096377;27;20232;-70
2023/03/08 03:27:48;;;;;;;12.25;9.35;;;7.20;99.90;;;;;;5099413;27;20279;-70
2023/03/08 03:30:15;;;;;;;9.77;8.77;;;7.20;99.90;;;;;;5101951;27;20681;-71
2023/03/08 03:32:44;;;;;;;11.85;9.65;;;7.30;99.90;;;;;;5101196;27;20298;-70
2023/03/08 03:35:11;;;;;;;11.25;8.93;;;7.20;99.90;;;;;;5097694;27;20200;-70
2023/03/08 03:37:38;;;;;;;10.80;9.00;;;7.30;99.90;;;;;;5101465;27;20236;-72
2023/03/08 03:40:06;;;;;;;13.40;9.77;;;7.30;99.90;;;;;;5099644;27;20222;-71
2023/03/08 03:42:33;;;;;;;10.50;9.07;;;7.30;99.90;;;;;;5101613;27;20529;-71
2023/03/08 03:45:00;;;;;;;11.75;9.52;;;7.30;99.90;;;;;;5097206;27;20300;-70
2023/03/08 03:47:28;;;;;;;11.57;9.55;;;7.30;99.90;;;;;;5098076;28;20734;-71
2023/03/08 03:49:56;;;;;;;10.60;9.50;;;7.30;99.90;;;;;;5091211;28;20409;-71
2023/03/08 03:52:24;;;;;;;11.15;9.23;;;7.30;99.90;;;;;;5096187;27;20249;-72
2023/03/08 03:54:51;;;;;;;11.55;9.20;;;7.30;99.90;;;;;;5101032;27;20237;-70
2023/03/08 03:57:20;;;;;;;10.52;9.27;;;7.30;99.90;;;;;;5103830;28;20248;-72
2023/03/08 03:59:47;;;;;;;10.15;8.90;;;7.30;99.90;;;;;;5101340;28;20296;-69
2023/03/08 04:02:14;;;;;;;13.18;9.90;;;7.30;99.90;;;;;;5101471;28;20309;-70
2023/03/08 04:04:41;;;;;;;11.93;9.18;;;7.30;99.90;;;;;;5097542;28;20229;-70
2023/03/08 04:07:11;;;;;;;10.23;9.13;;;7.20;99.90;;;;;;5104812;28;20351;-72
2023/03/08 04:09:38;;;;;;;10.95;9.77;;;7.20;99.90;;;;;;5095850;28;20224;-72
2023/03/08 04:12:06;;;;;;;10.50;9.00;;;7.20;99.90;;;;;;5096586;28;20303;-71
2023/03/08 04:14:33;;;;;;;12.18;10.55;;;7.10;99.90;;;;;;5094479;28;20232;-69
2023/03/08 04:17:00;;;;;;;12.05;10.48;;;7.10;99.90;;;;;;5094538;27;20839;-70
2023/03/08 04:19:27;;;;;;;11.57;9.93;;;7.10;99.90;;;;;;5101573;27;20284;-70
2023/03/08 04:21:54;;;;;;;11.25;9.80;;;7.10;99.90;;;;;;5101858;27;20384;-71
2023/03/08 04:24:23;;;;;;;10.38;9.30;;;7.00;99.90;;;;;;5105522;27;20213;-71
2023/03/08 04:26:50;;;;;;;10.63;9.43;;;7.00;99.90;;;;;;5107728;27;20482;-71
2023/03/08 04:29:17;;;;;;;11.18;9.00;;;7.00;99.90;;;;;;5105798;27;20458;-71
2023/03/08 04:31:44;;;;;;;12.88;9.50;;;7.00;99.90;;;;;;5097793;27;20308;-71
2023/03/08 04:34:11;;;;;;;11.85;9.45;;;7.00;99.90;;;;;;5101867;28;20789;-71
2023/03/08 04:36:39;;;;;;;11.70;9.85;;;7.00;99.90;;;;;;5103144;27;20319;-70
2023/03/08 04:39:05;;;;;;;10.25;9.18;;;7.00;99.90;;;;;;5102749;27;20236;-71
2023/03/08 04:41:34;;;;;;;11.18;10.07;;;6.90;99.90;;;;;;5100878;27;20312;-71
2023/03/08 04:44:01;;;;;;;11.07;8.65;;;6.90;99.90;;;;;;5105602;27;20297;-71
2023/03/08 04:46:28;;;;;;;12.73;9.15;;;6.90;99.90;;;;;;5097567;27;20202;-71
2023/03/08 04:48:56;;;;;;;11.68;8.95;;;6.90;99.90;;;;;;5103381;27;20283;-71
2023/03/08 04:51:24;;;;;;;10.45;9.38;;;6.90;99.90;;;;;;5104306;27;20270;-71
2023/03/08 04:53:51;;;;;;;9.95;8.95;;;6.90;99.90;;;;;;5100251;27;20712;-70
2023/03/08 04:56:18;;;;;;;10.50;8.60;;;7.00;99.90;;;;;;5102531;28;20873;-71
2023/03/08 04:58:47;;;;;;;10.27;9.15;;;7.00;99.90;;;;;;5099519;27;20656;-69
2023/03/08 05:01:16;;;;;;;9.50;8.60;;;7.00;99.90;;;;;;5101016;27;20248;-70
2023/03/08 05:03:44;;;;;;;9.65;8.68;;;7.00;99.90;;;;;;5103365;27;20285;-70
2023/03/08 05:06:13;;;;;;;10.98;9.85;;;7.00;99.90;;;;;;5101659;27;20250;-70
2023/03/08 05:08:40;;;;;;;10.88;9.32;;;7.00;99.90;;;;;;5106151;27;20237;-70
2023/03/08 05:11:07;;;;;;;11.63;10.35;;;7.00;99.90;;;;;;5105823;27;20245;-70
2023/03/08 05:13:36;;;;;;;11.70;9.55;;;6.90;99.90;;;;;;5098606;27;20682;-70
2023/03/08 05:16:06;;;;;;;10.82;9.63;;;6.80;99.90;;;;;;5103210;27;20271;-70
2023/03/08 05:18:33;;;;;;;10.48;9.38;;;6.80;99.90;;;;;;5100818;27;20567;-69
2023/03/08 05:21:02;;;;;;;10.77;9.43;;;6.80;99.90;;;;;;5102033;28;20228;-70
2023/03/08 05:23:29;;;;;;;11.15;10.02;;;6.80;99.90;;;;;;5101817;27;20232;-70
2023/03/08 05:25:57;;;;;;;11.23;9.30;;;6.90;99.90;;;;;;5103468;27;20822;-70
2023/03/08 05:28:26;;;;;;;11.07;9.98;;;6.80;99.90;;;;;;5105158;27;20340;-72
2023/03/08 05:31:01;;;;;;;11.50;10.30;;;6.80;99.90;;;;;;5100895;27;20213;-71
2023/03/08 05:33:30;;;;;;;12.73;9.77;;;6.80;99.90;;;;;;5099879;27;20316;-70
2023/03/08 05:35:57;;;;;;;12.90;10.35;;;6.80;99.90;;;;;;5103934;27;20280;-69
2023/03/08 05:38:24;;;;;;;13.18;10.63;;;6.80;99.90;;;;;;5102260;27;20216;-71
2023/03/08 05:40:52;;;;;;;12.05;10.75;;;6.80;99.90;;;;;;5106120;27;20806;-70
2023/03/08 05:43:20;;;;;;;11.93;10.73;;;6.70;99.90;;;;;;5095202;27;20259;-69
2023/03/08 05:45:55;;;;;;;13.75;10.90;;;6.70;99.90;;;;;;5098638;27;20307;-70
2023/03/08 05:48:23;;;;;;;13.63;11.05;;;6.60;99.90;;;;;;5104333;27;20209;-71
2023/03/08 05:50:51;;;;;;;11.75;10.55;;;6.50;99.90;;;;;;5102982;27;20560;-69
2023/03/08 05:53:18;;;;;;;12.40;10.15;;;6.40;99.90;;;;;;5101610;27;20288;-69
2023/03/08 05:55:45;;;;;;;11.77;10.20;;;6.30;99.90;;;;;;5103982;27;20205;-72
2023/03/08 05:58:12;;;;;;;12.07;10.80;;;6.30;99.90;;;;;;5104352;27;20236;-70
2023/03/08 06:00:39;;;;;;;14.57;12.00;;;6.20;99.90;;;;;;5106363;27;20201;-70
2023/03/08 06:03:07;;;;;;;15.05;11.15;;;6.30;99.90;;;;;;5102395;27;20300;-71
2023/03/08 06:05:34;;;;;;;13.13;10.88;;;6.30;99.90;;;;;;5106246;27;20228;-71
2023/03/08 06:08:03;;;;;;;12.45;11.15;;;6.30;99.90;;;;;;5105812;27;20240;-71
2023/03/08 06:10:30;;;;;;;13.20;10.20;;;6.40;99.90;;;;;;5101711;27;20280;-72
2023/03/08 06:12:57;;;;;;;11.90;10.68;;;6.40;99.90;;;;;;5098393;27;20294;-71
2023/03/08 06:15:24;;;;;;;12.32;10.35;;;6.40;99.90;;;;;;5101764;27;20300;-71
2023/03/08 06:17:53;;;;;;;13.30;11.90;;;6.50;99.90;;;;;;5094797;27;20299;-72
2023/03/08 06:20:20;;;;;;;12.13;10.88;;;6.50;99.90;;;;;;5101711;27;20507;-71
2023/03/08 06:22:48;;;;;;;13.38;11.00;;;6.50;99.90;;;;;;5101150;27;20642;-72
2023/03/08 06:25:19;;;;;;;12.80;11.38;;;6.60;99.90;;;;;;5099178;27;20298;-71
2023/03/08 06:27:46;;;;;;;14.20;11.52;;;6.70;99.90;;;;;;5096246;27;20201;-74
2023/03/08 06:30:13;;;;;;;13.80;11.82;;;6.80;99.90;;;;;;5100042;27;20313;-70
2023/03/08 06:32:41;;;;;;;12.82;11.50;;;6.80;99.90;;;;;;5102719;27;20618;-69
2023/03/08 06:35:09;;;;;;;12.38;11.05;;;6.80;99.90;;;;;;5100134;27;20778;-70
2023/03/08 06:37:37;;;;;;;12.63;10.50;;;6.80;99.90;;;;;;5103678;27;20220;-71
2023/03/08 06:40:07;;;;;;;13.43;11.70;;;6.80;99.90;;;;;;5103762;27;20228;-71
2023/03/08 06:42:36;;;;;;;11.82;10.43;;;6.80;99.90;;;;;;5099070;27;20307;-71
2023/03/08 06:45:03;;;;;;;11.77;10.52;;;6.90;99.90;;;;;;5103910;27;20225;-71
2023/03/08 06:47:30;;;;;;;11.77;10.00;;;7.00;99.90;;;;;;5101187;27;20589;-71
2023/03/08 06:49:58;;;;;;;12.32;11.02;;;7.00;99.90;;;;;;5096134;28;20799;-71
2023/03/08 06:52:25;;;;;;;12.63;11.32;;;7.10;99.90;;;;;;5096457;27;20304;-70
2023/03/08 06:54:52;;;;;;;13.77;10.93;;;7.10;99.90;;;;;;5088671;27;20626;-71
2023/03/08 06:57:19;;;;;;;13.65;10.70;;;7.20;99.90;;;;;;5103266;27;20252;-72
2023/03/08 06:59:47;;;;;;;12.55;10.48;;;7.20;99.90;;;;;;5101498;27;20729;-73
2023/03/08 07:02:14;;;;;;;13.45;11.15;;;7.20;99.90;;;;;;5104472;27;20213;-72
2023/03/08 07:04:42;;;;;;;13.70;10.45;;;7.20;99.90;;;;;;5097928;27;20197;-71
2023/03/08 07:07:09;;;;;;;14.40;11.98;;;7.20;99.90;;;;;;5102492;27;20314;-71
2023/03/08 07:09:36;;;;;;;16.60;12.35;;;7.20;99.90;;;;;;5095665;27;20669;-72
2023/03/08 07:12:03;;;;;;;15.40;11.98;;;7.20;99.90;;;;;;5100432;27;20307;-72
2023/03/08 07:14:30;;;;;;;13.90;11.70;;;7.20;99.90;;;;;;5097791;27;20215;-73
2023/03/08 07:16:59;;;;;;;18.05;12.82;;;7.20;99.90;;;;;;5095155;27;20291;-73
2023/03/08 07:19:26;;;;;;;14.75;11.57;;;7.30;99.90;;;;;;5097655;27;21537;-73
2023/03/08 07:21:53;;;;;;;15.05;12.20;;;7.10;99.90;;;;;;5093976;27;20569;-71
2023/03/08 07:24:20;;;;;;;12.65;11.23;;;7.10;99.90;;;;;;5097330;27;20287;-72
2023/03/08 07:26:47;;;;;;;12.50;11.18;;;7.20;99.90;;;;;;5099356;27;20257;-73
2023/03/08 07:29:14;;;;;;;13.32;10.93;;;7.40;99.90;;;;;;5098399;28;20648;-73
2023/03/08 07:31:41;;;;;;;17.15;13.75;;;7.50;99.90;;;;;;5093443;27;20321;-72
2023/03/08 07:34:10;;;;;;;14.93;13.32;;;7.60;99.90;;;;;;5091947;27;20276;-71
2023/03/08 07:36:38;;;;;;;15.75;13.27;;;7.70;99.90;;;;;;5093321;27;20252;-72
2023/03/08 07:39:05;;;;;;;16.02;12.57;;;7.80;99.90;;;;;;5096094;28;20292;-72
2023/03/08 07:41:33;;;;;;;15.25;13.25;;;7.80;99.90;;;;;;5095850;28;20307;-73
2023/03/08 07:44:01;;;;;;;14.05;12.27;;;7.80;99.90;;;;;;5097275;28;20205;-70
2023/03/08 07:46:28;;;;;;;15.07;13.50;;;7.90;99.90;;;;;;5097525;28;20205;-70
2023/03/08 07:48:55;;;;;;;14.40;11.50;;;8.10;99.90;;;;;;5097452;27;20611;-72
2023/03/08 07:51:24;;;;;;;13.50;12.05;;;8.40;99.90;;;;;;5092902;28;20217;-71
2023/03/08 07:53:52;;;;;;;13.93;12.43;;;8.50;99.90;;;;;;5095334;27;20229;-71
2023/03/08 07:56:19;;;;;;;16.38;12.82;;;8.70;99.90;;;;;;5090378;28;20666;-71
2023/03/08 07:58:46;;;;;;;16.45;12.68;;;8.80;99.90;;;;;;5096104;28;20224;-70
2023/03/08 08:01:14;;;;;;;14.23;12.45;;;8.80;99.90;;;;;;5098541;28;20300;-72
2023/03/08 08:03:41;;;;;;;16.05;13.43;;;8.80;99.90;;;;;;5099640;28;20200;-71
2023/03/08 08:06:09;;;;;;;18.35;13.27;;;8.80;99.90;;;;;;5099827;27;20587;-71
2023/03/08 08:08:38;;;;;;;16.05;13.38;;;8.80;99.90;;;;;;5098191;27;20220;-71
2023/03/08 08:11:12;;;;;;;14.57;12.65;;;8.80;99.90;;;;;;5094305;28;20256;-72
2023/03/08 08:13:39;;;;;;;17.17;14.43;;;8.80;99.90;;;;;;5092127;28;20697;-72
2023/03/08 08:16:07;;;;;;;14.85;13.20;;;8.70;99.90;;;;;;5094702;28;20351;-72
2023/03/08 08:18:34;;;;;;;17.08;13.55;;;8.60;99.90;;;;;;5095346;28;20224;-71
2023/03/08 08:21:02;;;;;;;14.05;12.07;;;8.60;99.90;;;;;;5097922;27;20220;-72
2023/03/08 08:23:30;;;;;;;14.52;13.00;;;8.70;99.90;;;;;;5099262;28;20738;-72
2023/03/08 08:25:59;;;;;;;16.27;13.38;;;8.70;99.90;;;;;;5089858;28;20648;-71
2023/03/08 08:28:26;;;;;;;19.30;14.10;;;8.70;99.90;;;;;;5093861;28;20228;-71
2023/03/08 08:30:58;;;;;;;17.55;13.48;;;8.80;99.90;;;;;;5094932;28;20229;-71
2023/03/08 08:33:25;;;;;;;16.65;13.27;;;8.90;99.90;;;;;;5093622;28;20229;-72
2023/03/08 08:35:53;;;;;;;17.75;14.20;;;9.00;99.90;;;;;;5095252;28;20301;-71
2023/03/08 08:38:20;;;;;;;15.82;13.27;;;9.20;99.90;;;;;;5094961;28;20293;-71
2023/03/08 08:40:47;;;;;;;18.25;13.75;;;9.30;99.90;;;;;;5096093;28;20304;-71
2023/03/08 08:43:16;;;;;;;18.63;15.05;;;9.70;99.90;;;;;;5098947;28;20236;-71
2023/03/08 08:45:44;;;;;;;18.80;14.93;;;10.10;99.90;;;;;;5096546;28;20565;-71
2023/03/08 08:48:12;;;;;;;17.73;14.43;;;10.30;99.90;;;;;;5096600;28;20227;-70
2023/03/08 08:50:39;;;;;;;21.90;15.10;;;10.40;99.90;;;;;;5100420;27;20558;-71
2023/03/08 08:53:07;;;;;;;19.35;15.07;;;10.40;99.90;;;;;;5098256;28;20643;-71
2023/03/08 08:55:34;;;;;;;20.80;16.17;;;10.40;99.90;;;;;;5100139;28;20572;-71
2023/03/08 08:58:03;;;;;;;18.30;14.52;;;10.30;99.90;;;;;;5094389;28;20689;-71
2023/03/08 09:00:33;;;;;;;18.35;13.95;;;10.00;99.90;;;;;;5095418;28;20654;-71
2023/03/08 09:03:01;;;;;;;19.52;14.73;;;9.70;99.90;;;;;;5097252;28;20216;-72
2023/03/08 09:05:28;;;;;;;19.27;14.63;;;9.70;99.90;;;;;;5100467;27;20241;-71
2023/03/08 09:07:57;;;;;;;20.27;15.57;;;9.80;99.90;;;;;;5098314;27;20204;-71
2023/03/08 09:10:25;;;;;;;19.95;13.95;;;9.80;99.90;;;;;;5100171;27;20263;-71
2023/03/08 09:12:52;;;;;;;18.17;13.55;;;9.70;99.90;;;;;;5098113;27;20757;-71
2023/03/08 09:15:20;;;;;;;15.60;13.05;;;10.00;99.90;;;;;;5099760;27;20506;-70
2023/03/08 09:17:49;;;;;;;18.02;13.88;;;10.30;99.90;;;;;;5105618;27;20224;-71
2023/03/08 09:20:16;;;;;;;17.67;13.40;;;10.70;99.90;;;;;;5096570;27;20755;-71
2023/03/08 09:22:44;;;;;;;19.00;13.98;;;11.00;99.90;;;;;;5097698;27;20652;-71
2023/03/08 09:25:12;;;;;;;18.98;14.55;;;11.40;99.90;;;;;;5098608;27;20205;-72
2023/03/08 09:27:40;;;;;;;20.65;15.32;;;11.60;99.90;;;;;;5098414;27;20707;-71
2023/03/08 09:30:11;;;;;;;19.50;15.30;;;11.90;99.90;;;;;;5098371;27;20339;-71
2023/03/08 09:32:39;;;;;;;18.42;14.25;;;12.10;99.90;;;;;;5095586;27;20279;-72
2023/03/08 09:35:08;;;;;;;20.58;15.68;;;12.30;99.90;;;;;;5097286;27;20904;-71
2023/03/08 09:37:36;;;;;;;19.27;15.65;;;12.30;99.90;;;;;;5092334;27;20532;-72
2023/03/08 09:40:08;;;;;;;23.60;15.77;;;12.50;99.90;;;;;;5096853;27;20647;-72
2023/03/08 09:42:37;;;;;;;20.13;14.07;;;12.80;99.90;;;;;;5096757;27;20220;-72
2023/03/08 09:45:17;;;;;;;18.67;15.00;;;13.00;99.90;;;;;;5095879;27;20571;-71
2023/03/08 09:47:48;;;;;;;19.83;14.63;;;13.40;99.90;;;;;;5100592;27;20270;-72
2023/03/08 09:50:28;;;;;;;16.38;14.68;;;13.60;99.90;;;;;;5089184;27;20201;-71
2023/03/08 09:52:59;;;;;;;17.40;13.60;;;14.10;99.90;;;;;;5099266;27;20795;-72
2023/03/08 09:55:30;;;;;;;17.85;14.02;;;14.50;99.90;;;;;;5094290;27;20215;-72
2023/03/08 09:58:00;;;;;;;16.63;14.82;;;14.90;99.90;;;;;;5095964;27;20308;-72
2023/03/08 10:00:31;;;;;;;21.02;14.60;;;15.10;99.90;;;;;;5096410;27;20197;-71
2023/03/08 10:03:17;;;;;;;18.83;15.00;;;15.10;99.90;;;;;;5101544;27;20311;-71
2023/03/08 10:05:55;;;;;;;19.25;15.18;;;15.20;99.90;;;;;;5102323;27;20254;-72
2023/03/08 10:08:26;;;;;;;17.90;14.85;;;14.90;99.90;;;;;;5101814;27;20281;-72
2023/03/08 10:10:59;;;;;;;18.90;15.18;;;14.90;99.90;;;;;;5093721;27;20204;-72
2023/03/08 10:13:37;;;;;;;18.30;15.23;;;15.10;99.90;;;;;;5100298;27;20189;-71
2023/03/08 10:16:16;;;;;;;19.98;15.40;;;15.30;99.90;;;;;;5097082;27;20209;-72
2023/03/08 10:18:49;;;;;;;21.45;14.23;;;15.10;99.90;;;;;;5098964;27;20248;-71
2023/03/08 10:21:21;;;;;;;19.58;14.23;;;15.30;99.90;;;;;;5097021;27;20307;-71
2023/03/08 10:23:56;;;;;;;16.83;13.95;;;15.70;99.90;;;;;;5092667;27;20221;-71
2023/03/08 10:26:26;;;;;;;16.48;14.20;;;15.70;99.90;;;;;;5095912;27;20196;-71
2023/03/08 10:28:53;;;;;;;17.85;14.77;;;16.10;99.90;;;;;;5097162;27;20244;-72
2023/03/08 10:31:24;;;;;;;20.42;13.95;;;16.10;99.90;;;;;;5092686;27;20305;-72
2023/03/08 10:33:58;;;;;;;16.00;13.18;;;16.10;99.90;;;;;;5095421;27;20304;-71
2023/03/08 10:36:28;;;;;;;21.35;14.77;;;16.40;99.90;;;;;;5094795;27;20296;-72
2023/03/08 10:39:01;;;;;;;16.20;14.27;;;16.60;99.90;;;;;;5100839;27;20658;-72
2023/03/08 10:41:31;;;;;;;20.45;16.08;;;16.20;99.90;;;;;;5094587;27;20220;-71
2023/03/08 10:43:59;;;;;;;18.73;14.27;;;16.00;99.90;;;;;;5093393;27;20202;-72
2023/03/08 10:46:30;;;;;;;19.00;15.15;;;15.90;99.90;;;;;;5088683;28;20212;-72
2023/03/08 10:49:08;;;;;;;16.92;14.23;;;16.00;99.90;;;;;;5097456;27;20769;-72
2023/03/08 10:51:37;;;;;;;17.55;14.43;;;16.20;99.90;;;;;;5094628;27;20240;-72
2023/03/08 10:54:06;;;;;;;17.38;13.93;;;16.30;99.90;;;;;;5098932;27;20228;-72
2023/03/08 10:56:38;;;;;;;15.32;12.52;;;16.70;99.90;;;;;;5090123;27;20198;-71
2023/03/08 10:59:06;;;;;;;19.52;13.15;;;17.00;99.90;;;;;;5096852;27;20708;-72
2023/03/08 11:01:35;;;;;;;17.73;14.07;;;16.90;99.90;;;;;;5093832;27;20662;-71
2023/03/08 11:04:04;;;;;;;17.67;13.75;;;16.60;99.90;;;;;;5101755;27;20279;-71
2023/03/08 11:06:32;;;;;;;16.17;13.82;;;16.60;99.90;;;;;;5092308;28;20204;-71
2023/03/08 11:09:02;;;;;;;17.58;13.98;;;16.90;99.90;;;;;;5098030;27;20291;-72
2023/03/08 11:11:40;;;;;;;16.67;13.10;;;16.80;99.90;;;;;;5098384;27;20224;-72
2023/03/08 11:14:11;;;;;;;21.85;14.57;;;16.70;99.90;;;;;;5131704;27;20232;-72
2023/03/08 11:16:51;;;;;;;15.93;13.05;;;16.50;99.90;;;;;;5098037;27;20215;-71
2023/03/08 11:19:40;;;;;;;17.35;14.25;;;16.40;99.90;;;;;;5097554;27;20646;-71
2023/03/08 11:22:18;;;;;;;23.42;14.68;;;16.70;99.90;;;;;;5088038;27;20217;-73
2023/03/08 11:25:03;;;;;;;16.38;13.27;;;16.60;99.90;;;;;;5092141;27;20205;-71
2023/03/08 11:27:44;;;;;;;15.57;13.23;;;16.60;99.90;;;;;;5103528;27;20208;-73
2023/03/08 11:30:21;;;;;;;16.55;13.55;;;17.20;99.90;;;;;;5101869;27;20200;-72
2023/03/08 11:33:01;;;;;;;18.70;13.88;;;17.20;99.90;;;;;;5099274;27;20248;-73
2023/03/08 11:35:36;;;;;;;16.90;12.38;;;17.00;99.90;;;;;;5095365;27;20237;-73
2023/03/08 11:38:11;;;;;;;13.57;10.40;;;16.90;99.90;;;;;;5095291;27;20292;-73
2023/03/08 11:40:52;;;;;;;17.45;11.90;;;16.60;99.90;;;;;;5096973;28;22209;-73
2023/03/08 11:43:33;;;;;;;17.20;10.88;;;16.60;99.90;;;;;;5101843;27;20244;-72
2023/03/08 11:46:06;;;;;;;14.38;10.55;;;16.70;99.90;;;;;;5098185;27;20201;-73
2023/03/08 11:48:50;;;;;;;15.48;11.05;;;16.70;99.90;;;;;;5098172;28;20258;-72
2023/03/08 11:51:23;;;;;;;14.48;10.35;;;16.50;99.90;;;;;;5097864;27;20321;-71
2023/03/08 11:54:00;;;;;;;10.45;9.35;;;16.60;99.90;;;;;;5097099;27;20270;-73
2023/03/08 11:59:33;;;;;;;11.98;9.77;;;17.00;99.90;;;;;;5131231;27;20577;-73
2023/03/08 12:02:04;;;;;;;14.38;9.88;;;17.90;99.90;;;;;;5113788;27;20235;-71
2023/03/08 12:04:42;;;;;;;11.75;7.93;;;17.50;99.90;;;;;;5118689;27;20529;-73
2023/03/08 12:07:17;;;;;;;14.00;9.73;;;17.30;99.90;;;;;;5111788;27;20225;-72
2023/03/08 12:09:54;;;;;;;12.73;8.75;;;17.00;99.90;;;;;;5092132;28;20232;-72
2023/03/08 12:12:26;;;;;;;13.00;8.57;;;16.80;99.90;;;;;;5095895;28;20286;-73
2023/03/08 12:15:00;;;;;;;13.45;9.38;;;16.80;99.90;;;;;;5095235;28;20225;-73
2023/03/08 12:17:32;;;;;;;13.55;9.57;;;16.70;99.90;;;;;;5091596;28;20260;-75
2023/03/08 12:19:59;;;;;;;12.15;8.45;;;16.50;99.90;;;;;;5088949;28;20241;-70
2023/03/08 12:22:40;;;;;;;14.35;9.05;;;16.30;99.90;;;;;;5095467;28;20679;-70
2023/03/08 12:25:17;;;;;;;13.30;9.30;;;16.30;99.90;;;;;;5088358;28;20224;-71
2023/03/08 12:27:47;;;;;;;11.52;9.18;;;16.40;99.90;;;;;;5090379;28;21058;-74
2023/03/08 12:30:26;;;;;;;14.73;8.98;;;16.20;99.90;;;;;;5094198;28;20258;-72
2023/03/08 12:32:55;;;;;;;14.02;8.90;;;16.30;99.90;;;;;;5095653;28;20227;-73
2023/03/08 12:35:28;;;;;;;15.05;9.60;;;16.30;99.90;;;;;;5092054;28;20258;-70
2023/03/08 12:37:56;;;;;;;10.05;8.27;;;16.40;99.90;;;;;;5092505;28;20303;-70
2023/03/08 12:40:39;;;;;;;14.65;9.10;;;16.20;99.90;;;;;;5088723;28;20293;-70
2023/03/08 12:43:10;;;;;;;11.85;8.13;;;16.30;99.90;;;;;;5094208;28;20254;-70
2023/03/08 12:45:41;;;;;;;10.35;8.38;;;16.70;99.90;;;;;;5089195;28;20262;-70
2023/03/08 12:48:22;;;;;;;13.85;8.95;;;16.70;99.90;;;;;;5093198;28;20252;-71
2023/03/08 12:51:03;;;;;;;14.10;9.43;;;16.60;99.90;;;;;;5095446;28;20292;-70
2023/03/08 12:53:37;;;;;;;12.95;9.13;;;16.50;99.90;;;;;;5093962;28;20298;-72